createdAt,value
2022-10-11T00:03:05.969Z,8.70
2022-10-11T00:08:08.589Z,9.70
2022-10-11T00:13:11.016Z,9.23
2022-10-11T00:18:13.359Z,10.10
2022-10-11T00:23:16.249Z,10.10
2022-10-11T00:28:18.674Z,9.80
2022-10-11T00:33:21.203Z,9.60
2022-10-11T00:38:23.730Z,10.30
2022-10-11T00:43:28.336Z,10.40
2022-10-11T00:48:38.779Z,10.80
2022-10-11T00:53:41.871Z,11.07
2022-10-11T00:58:44.464Z,11.23
2022-10-11T01:03:47.012Z,11.32
2022-10-11T01:08:50.873Z,11.10
2022-10-11T01:14:01.990Z,11.00
2022-10-11T01:19:19.299Z,12.68
2022-10-11T01:24:33.508Z,11.23
2022-10-11T01:30:00.228Z,12.65
2022-10-11T01:35:08.143Z,11.23
2022-10-11T01:40:14.736Z,12.00
2022-10-11T01:45:19.531Z,13.43
2022-10-11T01:50:45.626Z,13.43
2022-10-11T01:56:02.399Z,13.00
2022-10-11T02:01:37.331Z,10.82
2022-10-11T02:06:51.615Z,13.93
2022-10-11T02:11:57.555Z,15.25
2022-10-11T02:17:04.599Z,15.98
2022-10-11T02:22:11.127Z,16.45
2022-10-11T02:27:14.307Z,16.47
2022-10-11T02:32:18.273Z,16.77
2022-10-11T02:37:28.312Z,17.88
2022-10-11T02:42:44.501Z,16.48
2022-10-11T02:47:47.626Z,16.00
2022-10-11T02:52:50.073Z,15.80
2022-10-11T02:57:52.372Z,16.48
2022-10-11T03:02:54.771Z,16.20
2022-10-11T03:07:57.243Z,16.30
2022-10-11T03:12:59.576Z,17.20
2022-10-11T03:18:01.877Z,16.85
2022-10-11T03:23:04.274Z,16.17
2022-10-11T03:28:06.878Z,16.88
2022-10-11T03:33:09.266Z,15.68
2022-10-11T03:38:17.233Z,16.80
2022-10-11T03:43:19.737Z,16.63
2022-10-11T03:48:22.187Z,15.82
2022-10-11T03:53:24.831Z,18.27
2022-10-11T03:58:27.242Z,19.25
2022-10-11T04:03:30.019Z,16.58
2022-10-11T04:08:32.379Z,17.45
2022-10-11T04:13:34.733Z,17.23
2022-10-11T04:18:37.231Z,19.75
2022-10-11T04:23:39.537Z,17.77
2022-10-11T04:28:41.913Z,18.15
2022-10-11T04:33:44.400Z,17.80
2022-10-11T04:38:46.783Z,17.40
2022-10-11T04:43:49.120Z,18.75
2022-10-11T04:48:51.621Z,17.90
2022-10-11T04:53:54.012Z,18.92
2022-10-11T04:58:56.371Z,17.15
2022-10-11T05:03:58.763Z,19.65
2022-10-11T05:09:01.114Z,17.58
2022-10-11T05:14:03.639Z,17.27
2022-10-11T05:19:06.112Z,18.02
2022-10-11T05:24:08.587Z,17.40
2022-10-11T05:29:10.880Z,17.40
2022-10-11T05:34:13.263Z,18.05
2022-10-11T05:39:15.960Z,16.73
2022-10-11T05:44:18.558Z,15.57
2022-10-11T05:49:20.908Z,15.90
2022-10-11T05:54:23.524Z,14.35
2022-10-11T05:59:25.848Z,13.18
2022-10-11T06:04:28.191Z,12.55
2022-10-11T06:09:31.359Z,12.23
2022-10-11T06:14:33.677Z,11.93
2022-10-11T06:19:36.066Z,11.10
2022-10-11T06:24:38.449Z,10.73
2022-10-11T06:29:40.851Z,8.75
2022-10-11T06:34:43.214Z,6.60
2022-10-11T06:39:45.537Z,7.82
2022-10-11T06:44:47.921Z,7.63
2022-10-11T06:49:50.358Z,7.50
2022-10-11T06:54:52.757Z,7.05
2022-10-11T06:59:55.118Z,5.45
2022-10-11T07:04:57.636Z,5.75
2022-10-11T07:10:00.111Z,5.07
2022-10-11T07:15:02.662Z,4.53
2022-10-11T07:20:06.791Z,5.25
2022-10-11T07:25:09.486Z,4.47
2022-10-11T07:30:12.241Z,4.00
2022-10-11T07:35:14.772Z,3.58
2022-10-11T07:40:17.124Z,4.28
2022-10-11T07:45:19.449Z,3.40
2022-10-11T07:50:21.833Z,3.35
2022-10-11T07:55:24.288Z,3.28
2022-10-11T08:00:26.939Z,2.95
2022-10-11T08:05:29.337Z,3.05
2022-10-11T08:10:38.394Z,2.85
2022-10-11T08:15:40.927Z,2.90
2022-10-11T08:20:43.377Z,3.03
2022-10-11T08:25:47.750Z,2.15
2022-10-11T08:30:51.759Z,2.53
2022-10-11T08:35:55.515Z,2.00
2022-10-11T08:40:59.822Z,2.35
2022-10-11T08:46:04.778Z,2.30
2022-10-11T08:51:14.788Z,2.53
2022-10-11T08:56:17.605Z,2.10
2022-10-11T09:01:23.740Z,2.20
2022-10-11T09:06:45.335Z,2.50
2022-10-11T09:12:12.028Z,2.40
2022-10-11T09:17:46.121Z,2.30
2022-10-11T09:23:09.436Z,2.00
2022-10-11T09:28:20.957Z,2.33
2022-10-11T09:33:29.558Z,1.88
2022-10-11T09:38:56.470Z,2.10
2022-10-11T09:43:58.813Z,2.28
2022-10-11T09:49:08.693Z,2.03
2022-10-11T09:54:11.165Z,2.55
2022-10-11T09:59:33.189Z,2.08
2022-10-11T10:04:35.568Z,2.08
2022-10-11T10:09:38.109Z,2.15
2022-10-11T10:14:41.769Z,2.58
2022-10-11T10:19:53.954Z,2.28
2022-10-11T10:24:57.002Z,2.30
2022-10-11T10:30:08.274Z,2.63
2022-10-11T10:35:34.774Z,2.08
2022-10-11T10:40:48.279Z,1.58
2022-10-11T10:46:00.651Z,1.83
2022-10-11T10:51:14.715Z,1.50
2022-10-11T10:56:24.882Z,1.70
2022-10-11T11:01:32.427Z,1.80
2022-10-11T11:12:26.493Z,2.70
2022-10-11T11:17:56.070Z,2.10
2022-10-11T11:23:16.556Z,1.90
2022-10-11T11:28:56.301Z,1.95
2022-10-11T11:34:30.278Z,1.52
2022-10-11T11:39:43.563Z,1.63
2022-10-11T11:44:48.273Z,1.38
2022-10-11T11:49:57.607Z,1.55
2022-10-11T11:55:06.092Z,1.70
2022-10-11T12:00:16.702Z,2.30
2022-10-11T12:05:23.814Z,1.90
2022-10-11T12:10:38.838Z,1.33
2022-10-11T12:15:55.863Z,2.38
2022-10-11T12:21:21.983Z,1.57
2022-10-11T12:26:30.558Z,1.75
2022-10-11T12:31:35.749Z,1.60
2022-10-11T12:36:38.084Z,1.45
2022-10-11T12:41:55.563Z,1.50
2022-10-11T12:46:58.038Z,1.38
2022-10-11T12:52:21.891Z,1.65
2022-10-11T12:57:46.603Z,1.58
2022-10-11T13:02:49.798Z,1.75
2022-10-11T13:07:56.357Z,1.88
2022-10-11T13:13:04.352Z,2.20
2022-10-11T13:18:06.785Z,1.45
2022-10-11T13:23:26.742Z,1.10
2022-10-11T13:28:34.132Z,2.15
2022-10-11T13:33:41.234Z,1.92
2022-10-11T13:39:00.299Z,1.65
2022-10-11T13:44:04.085Z,1.67
2022-10-11T13:49:27.091Z,1.60
2022-10-11T13:55:01.991Z,1.40
2022-10-11T14:00:34.786Z,1.50
2022-10-11T14:05:40.118Z,1.77
2022-10-11T14:10:47.269Z,1.58
2022-10-11T14:16:09.664Z,1.63
2022-10-11T14:21:47.183Z,1.42
2022-10-11T14:26:52.214Z,1.20
2022-10-11T14:32:01.757Z,1.57
2022-10-11T14:37:04.372Z,1.75
2022-10-11T14:42:06.867Z,2.33
2022-10-11T14:47:15.647Z,2.05
2022-10-11T14:52:17.970Z,2.13
2022-10-11T14:57:20.359Z,3.22
2022-10-11T15:02:22.715Z,1.98
2022-10-11T15:07:25.034Z,1.92
2022-10-11T15:12:27.391Z,2.90
2022-10-11T15:17:29.765Z,2.05
2022-10-11T15:22:32.087Z,2.28
2022-10-11T15:27:34.412Z,1.80
2022-10-11T15:32:36.701Z,1.75
2022-10-11T15:37:39.423Z,2.13
2022-10-11T15:42:42.181Z,2.28
2022-10-11T15:47:45.243Z,2.38
2022-10-11T15:52:47.635Z,2.92
2022-10-11T15:57:50.311Z,3.00
2022-10-11T16:02:53.388Z,7.25
2022-10-11T16:07:56.041Z,15.98
2022-10-11T16:12:59.067Z,20.23
2022-10-11T16:18:02.452Z,10.45
2022-10-11T16:23:05.355Z,10.98
2022-10-11T16:28:08.657Z,10.57
2022-10-11T16:33:11.114Z,14.88
2022-10-11T16:38:13.663Z,10.25
2022-10-11T16:43:16.041Z,8.32
2022-10-11T16:48:18.327Z,7.28
2022-10-11T16:53:21.862Z,7.03
2022-10-11T16:58:24.651Z,6.07
2022-10-11T17:03:27.094Z,7.57
2022-10-11T17:08:29.896Z,7.80
2022-10-11T17:13:32.361Z,9.25
2022-10-11T17:18:34.692Z,11.80
2022-10-11T17:23:37.758Z,13.02
2022-10-11T17:28:40.140Z,12.07
2022-10-11T17:33:42.525Z,10.45
2022-10-11T17:38:45.107Z,9.73
2022-10-11T17:43:48.171Z,9.20
2022-10-11T17:48:55.059Z,11.30
2022-10-11T17:53:57.747Z,13.93
2022-10-11T17:59:00.460Z,11.88
2022-10-11T18:04:06.058Z,12.25
2022-10-11T18:09:08.506Z,12.73
2022-10-11T18:14:11.512Z,15.80
2022-10-11T18:19:14.572Z,16.08
2022-10-11T18:24:17.262Z,18.70
2022-10-11T18:29:19.632Z,11.88
2022-10-11T18:34:21.940Z,11.60
2022-10-11T18:39:24.353Z,13.60
2022-10-11T18:44:26.607Z,12.93
2022-10-11T18:49:29.093Z,16.48
2022-10-11T18:54:31.507Z,26.35
2022-10-11T18:59:34.025Z,37.95
2022-10-11T19:04:36.371Z,36.05
2022-10-11T19:09:38.790Z,21.63
2022-10-11T19:14:41.529Z,16.38
2022-10-11T19:19:43.957Z,17.33
2022-10-11T19:24:46.292Z,14.63
2022-10-11T19:29:48.710Z,13.60
2022-10-11T19:34:51.229Z,14.00
2022-10-11T19:39:53.664Z,21.30
2022-10-11T19:44:56.072Z,26.17
2022-10-11T19:49:58.380Z,26.00
2022-10-11T19:55:00.741Z,27.08
2022-10-11T20:00:03.137Z,21.88
2022-10-11T20:05:07.174Z,15.93
2022-10-11T20:10:09.633Z,9.40
2022-10-11T20:15:12.156Z,10.63
2022-10-11T20:20:15.530Z,11.18
2022-10-11T20:25:17.838Z,11.82
2022-10-11T20:30:20.270Z,11.88
2022-10-11T20:35:22.528Z,9.18
2022-10-11T20:40:24.867Z,7.43
2022-10-11T20:45:27.206Z,9.07
2022-10-11T20:50:29.489Z,8.98
2022-10-11T20:55:31.756Z,9.00
2022-10-11T21:00:34.092Z,8.88
2022-10-11T21:05:36.534Z,9.45
2022-10-11T21:10:39.145Z,8.43
2022-10-11T21:15:41.886Z,8.70
2022-10-11T21:20:45.119Z,8.70
2022-10-11T21:25:47.437Z,8.90
2022-10-11T21:30:50.063Z,8.93
2022-10-11T21:35:52.439Z,13.50
2022-10-11T21:40:54.885Z,18.42
2022-10-11T21:45:57.321Z,19.88
2022-10-11T21:50:59.678Z,20.35
2022-10-11T21:56:02.281Z,16.45
2022-10-11T22:01:05.200Z,13.80
2022-10-11T22:06:07.629Z,12.55
2022-10-11T22:11:10.287Z,12.25
2022-10-11T22:16:13.637Z,13.55
2022-10-11T22:21:21.258Z,13.70
2022-10-11T22:26:26.606Z,12.38
2022-10-11T22:31:29.596Z,11.85
2022-10-11T22:36:33.656Z,12.30
2022-10-11T22:41:36.522Z,14.32
2022-10-11T22:46:38.756Z,9.15
2022-10-11T22:51:40.989Z,8.55
2022-10-11T22:56:43.285Z,8.40
2022-10-11T23:01:45.632Z,8.20
2022-10-11T23:06:47.970Z,8.82
2022-10-11T23:11:50.217Z,8.38
2022-10-11T23:16:52.549Z,7.90
2022-10-11T23:21:54.928Z,8.02
2022-10-11T23:26:57.186Z,8.10
2022-10-11T23:31:59.502Z,7.82
2022-10-11T23:37:02.486Z,8.38
2022-10-11T23:42:05.007Z,7.30
2022-10-11T23:47:07.279Z,7.32
2022-10-11T23:52:09.608Z,7.28
2022-10-11T23:57:12.554Z,6.20
